sensor_id;sensor_type;location;lat;lon;timestamp;pressure;altitude;pressure_sealevel;temperature;humidity
18504;BME280;9381;54.244;10.074;2024-02-15T00:00:03;100880.81;;;13.11;100.00
18504;BME280;9381;54.244;10.074;2024-02-15T00:05:07;100889.53;;;13.13;100.00
18504;BME280;9381;54.244;10.074;2024-02-15T00:10:08;100891.19;;;13.14;100.00
18504;BME280;9381;54.244;10.074;2024-02-15T00:15:09;100887.72;;;13.07;100.00
18504;BME280;9381;54.244;10.074;2024-02-15T00:20:11;100891.28;;;13.08;100.00
18504;BME280;9381;54.244;10.074;2024-02-15T00:25:11;100889.44;;;13.20;100.00
18504;BME280;9381;54.244;10.074;2024-02-15T00:30:14;100883.53;;;13.23;100.00
18504;BME280;9381;54.244;10.074;2024-02-15T00:35:14;100877.31;;;13.22;100.00
18504;BME280;9381;54.244;10.074;2024-02-15T00:40:14;100875.28;;;13.18;100.00
18504;BME280;9381;54.244;10.074;2024-02-15T00:45:15;100874.69;;;13.16;100.00
18504;BME280;9381;54.244;10.074;2024-02-15T00:50:16;100875.81;;;13.08;100.00
18504;BME280;9381;54.244;10.074;2024-02-15T00:55:16;100870.63;;;13.07;100.00
18504;BME280;9381;54.244;10.074;2024-02-15T01:00:17;100872.56;;;13.18;100.00
18504;BME280;9381;54.244;10.074;2024-02-15T01:05:17;100884.03;;;13.20;100.00
18504;BME280;9381;54.244;10.074;2024-02-15T01:10:18;100892.63;;;13.17;100.00
18504;BME280;9381;54.244;10.074;2024-02-15T01:15:20;100893.31;;;13.12;100.00
18504;BME280;9381;54.244;10.074;2024-02-15T01:20:20;100895.75;;;13.02;100.00
18504;BME280;9381;54.244;10.074;2024-02-15T01:25:21;100896.94;;;13.06;100.00
18504;BME280;9381;54.244;10.074;2024-02-15T01:30:21;100896.94;;;13.06;100.00
18504;BME280;9381;54.244;10.074;2024-02-15T01:35:22;100892.09;;;13.08;100.00
18504;BME280;9381;54.244;10.074;2024-02-15T01:40:22;100896.06;;;12.94;100.00
18504;BME280;9381;54.244;10.074;2024-02-15T01:45:22;100900.50;;;13.07;100.00
18504;BME280;9381;54.244;10.074;2024-02-15T01:50:23;100895.78;;;13.14;100.00
18504;BME280;9381;54.244;10.074;2024-02-15T01:55:25;100893.75;;;13.09;100.00
18504;BME280;9381;54.244;10.074;2024-02-15T02:00:25;100894.22;;;13.06;100.00
18504;BME280;9381;54.244;10.074;2024-02-15T02:05:27;100890.72;;;13.17;100.00
18504;BME280;9381;54.244;10.074;2024-02-15T02:10:28;100895.09;;;13.18;100.00
18504;BME280;9381;54.244;10.074;2024-02-15T02:15:32;100884.13;;;13.13;100.00
18504;BME280;9381;54.244;10.074;2024-02-15T02:20:33;100880.63;;;13.24;100.00
18504;BME280;9381;54.244;10.074;2024-02-15T02:25:34;100889.81;;;13.23;100.00
18504;BME280;9381;54.244;10.074;2024-02-15T02:30:35;100892.16;;;13.20;100.00
18504;BME280;9381;54.244;10.074;2024-02-15T02:35:35;100883.31;;;13.24;100.00
18504;BME280;9381;54.244;10.074;2024-02-15T02:40:35;100885.50;;;13.04;100.00
18504;BME280;9381;54.244;10.074;2024-02-15T02:45:36;100882.59;;;13.17;100.00
18504;BME280;9381;54.244;10.074;2024-02-15T02:50:36;100882.84;;;13.16;100.00
18504;BME280;9381;54.244;10.074;2024-02-15T02:55:37;100884.88;;;13.20;100.00
18504;BME280;9381;54.244;10.074;2024-02-15T03:00:38;100879.88;;;13.17;100.00
18504;BME280;9381;54.244;10.074;2024-02-15T03:05:39;100882.47;;;13.12;100.00
18504;BME280;9381;54.244;10.074;2024-02-15T03:10:40;100872.78;;;13.16;100.00
18504;BME280;9381;54.244;10.074;2024-02-15T03:15:41;100870.03;;;13.34;100.00
18504;BME280;9381;54.244;10.074;2024-02-15T03:20:41;100873.81;;;13.33;100.00
18504;BME280;9381;54.244;10.074;2024-02-15T03:25:42;100879.22;;;13.33;100.00
18504;BME280;9381;54.244;10.074;2024-02-15T03:30:44;100882.53;;;13.35;100.00
18504;BME280;9381;54.244;10.074;2024-02-15T03:35:46;100886.41;;;13.28;100.00
18504;BME280;9381;54.244;10.074;2024-02-15T03:40:46;100900.53;;;13.18;100.00
18504;BME280;9381;54.244;10.074;2024-02-15T03:45:46;100899.50;;;13.19;100.00
18504;BME280;9381;54.244;10.074;2024-02-15T03:50:47;100901.06;;;13.27;100.00
18504;BME280;9381;54.244;10.074;2024-02-15T03:55:48;100902.63;;;13.34;100.00
18504;BME280;9381;54.244;10.074;2024-02-15T04:00:48;100900.88;;;13.10;100.00
18504;BME280;9381;54.244;10.074;2024-02-15T04:05:49;100900.69;;;13.23;100.00
18504;BME280;9381;54.244;10.074;2024-02-15T04:10:49;100898.56;;;13.25;100.00
18504;BME280;9381;54.244;10.074;2024-02-15T04:15:49;100902.66;;;13.16;100.00
18504;BME280;9381;54.244;10.074;2024-02-15T04:20:52;100900.22;;;13.26;100.00
18504;BME280;9381;54.244;10.074;2024-02-15T04:25:52;100898.28;;;13.15;100.00
18504;BME280;9381;54.244;10.074;2024-02-15T04:30:54;100903.63;;;13.22;100.00
18504;BME280;9381;54.244;10.074;2024-02-15T04:35:55;100909.44;;;13.25;100.00
18504;BME280;9381;54.244;10.074;2024-02-15T04:40:55;100901.59;;;13.17;100.00
18504;BME280;9381;54.244;10.074;2024-02-15T04:45:56;100898.13;;;13.28;100.00
18504;BME280;9381;54.244;10.074;2024-02-15T04:50:56;100915.53;;;13.21;100.00
18504;BME280;9381;54.244;10.074;2024-02-15T04:55:59;100900.69;;;13.23;100.00
18504;BME280;9381;54.244;10.074;2024-02-15T05:01:07;100899.78;;;13.29;100.00
18504;BME280;9381;54.244;10.074;2024-02-15T05:06:07;100907.50;;;13.14;100.00
18504;BME280;9381;54.244;10.074;2024-02-15T05:11:10;100909.91;;;13.22;100.00
18504;BME280;9381;54.244;10.074;2024-02-15T05:16:18;100916.34;;;13.39;100.00
18504;BME280;9381;54.244;10.074;2024-02-15T05:21:18;100912.94;;;13.44;100.00
18504;BME280;9381;54.244;10.074;2024-02-15T05:26:19;100925.63;;;13.32;100.00
18504;BME280;9381;54.244;10.074;2024-02-15T05:31:23;100922.22;;;13.36;100.00
18504;BME280;9381;54.244;10.074;2024-02-15T05:36:26;100910.44;;;13.42;100.00
18504;BME280;9381;54.244;10.074;2024-02-15T05:41:27;100917.47;;;13.20;100.00
18504;BME280;9381;54.244;10.074;2024-02-15T05:46:27;100905.38;;;13.16;100.00
18504;BME280;9381;54.244;10.074;2024-02-15T05:51:31;100913.91;;;13.20;100.00
18504;BME280;9381;54.244;10.074;2024-02-15T05:56:32;100912.63;;;13.22;100.00
18504;BME280;9381;54.244;10.074;2024-02-15T06:01:32;100913.41;;;13.11;100.00
18504;BME280;9381;54.244;10.074;2024-02-15T06:06:32;100918.03;;;13.22;100.00
18504;BME280;9381;54.244;10.074;2024-02-15T06:11:33;100931.19;;;13.07;100.00
18504;BME280;9381;54.244;10.074;2024-02-15T06:16:43;100912.16;;;13.25;100.00
18504;BME280;9381;54.244;10.074;2024-02-15T06:21:43;100919.09;;;13.21;100.00
18504;BME280;9381;54.244;10.074;2024-02-15T06:26:43;100929.53;;;13.06;100.00
18504;BME280;9381;54.244;10.074;2024-02-15T06:31:44;100928.44;;;13.25;100.00
18504;BME280;9381;54.244;10.074;2024-02-15T06:37:03;100924.91;;;13.25;100.00
18504;BME280;9381;54.244;10.074;2024-02-15T06:42:22;100929.78;;;13.34;100.00
18504;BME280;9381;54.244;10.074;2024-02-15T06:47:22;100936.59;;;13.25;100.00
18504;BME280;9381;54.244;10.074;2024-02-15T06:52:23;100946.09;;;13.34;100.00
18504;BME280;9381;54.244;10.074;2024-02-15T06:57:23;100940.38;;;13.24;100.00
18504;BME280;9381;54.244;10.074;2024-02-15T07:02:23;100947.31;;;13.38;100.00
18504;BME280;9381;54.244;10.074;2024-02-15T07:07:24;100942.78;;;13.32;100.00
18504;BME280;9381;54.244;10.074;2024-02-15T07:12:28;100936.44;;;13.38;100.00
18504;BME280;9381;54.244;10.074;2024-02-15T07:17:28;100937.31;;;13.50;100.00
18504;BME280;9381;54.244;10.074;2024-02-15T07:22:32;100948.97;;;13.39;100.00
18504;BME280;9381;54.244;10.074;2024-02-15T07:27:32;100944.13;;;13.41;100.00
18504;BME280;9381;54.244;10.074;2024-02-15T07:32:35;100942.69;;;13.39;100.00
18504;BME280;9381;54.244;10.074;2024-02-15T07:37:35;100950.34;;;13.30;100.00
18504;BME280;9381;54.244;10.074;2024-02-15T07:42:35;100943.31;;;13.52;100.00
18504;BME280;9381;54.244;10.074;2024-02-15T07:47:36;100957.13;;;13.51;100.00
18504;BME280;9381;54.244;10.074;2024-02-15T07:52:36;100953.66;;;13.62;100.00
18504;BME280;9381;54.244;10.074;2024-02-15T07:57:36;100967.19;;;13.50;100.00
18504;BME280;9381;54.244;10.074;2024-02-15T08:02:38;100959.47;;;13.65;100.00
18504;BME280;9381;54.244;10.074;2024-02-15T08:07:42;100966.34;;;13.50;100.00
18504;BME280;9381;54.244;10.074;2024-02-15T08:12:46;100971.94;;;13.55;100.00
18504;BME280;9381;54.244;10.074;2024-02-15T08:17:46;100959.91;;;13.62;100.00
18504;BME280;9381;54.244;10.074;2024-02-15T08:22:47;100962.03;;;13.60;100.00
18504;BME280;9381;54.244;10.074;2024-02-15T08:27:48;100963.59;;;13.68;100.00
18504;BME280;9381;54.244;10.074;2024-02-15T08:32:49;100959.75;;;13.75;100.00
18504;BME280;9381;54.244;10.074;2024-02-15T08:37:50;100959.69;;;13.64;100.00
18504;BME280;9381;54.244;10.074;2024-02-15T08:42:52;100967.28;;;13.73;100.00
18504;BME280;9381;54.244;10.074;2024-02-15T08:47:53;100962.13;;;13.54;100.00
18504;BME280;9381;54.244;10.074;2024-02-15T08:52:53;100970.72;;;13.80;100.00
18504;BME280;9381;54.244;10.074;2024-02-15T08:57:53;100962.47;;;13.87;100.00
18504;BME280;9381;54.244;10.074;2024-02-15T09:02:54;100958.41;;;13.78;100.00
18504;BME280;9381;54.244;10.074;2024-02-15T09:07:54;100960.09;;;13.79;100.00
18504;BME280;9381;54.244;10.074;2024-02-15T09:12:55;100947.63;;;14.01;100.00
18504;BME280;9381;54.244;10.074;2024-02-15T09:17:55;100950.44;;;13.94;100.00
18504;BME280;9381;54.244;10.074;2024-02-15T09:22:57;100949.84;;;13.92;100.00
18504;BME280;9381;54.244;10.074;2024-02-15T09:27:58;100955.41;;;13.97;100.00
18504;BME280;9381;54.244;10.074;2024-02-15T09:32:58;100952.59;;;13.92;100.00
18504;BME280;9381;54.244;10.074;2024-02-15T09:37:58;100959.34;;;14.01;100.00
18504;BME280;9381;54.244;10.074;2024-02-15T09:42:59;100966.94;;;13.81;100.00
18504;BME280;9381;54.244;10.074;2024-02-15T09:48:05;100957.88;;;13.87;100.00
18504;BME280;9381;54.244;10.074;2024-02-15T09:53:07;100953.63;;;13.91;100.00
18504;BME280;9381;54.244;10.074;2024-02-15T09:58:08;100953.75;;;13.96;100.00
18504;BME280;9381;54.244;10.074;2024-02-15T10:03:10;100961.00;;;14.02;100.00
18504;BME280;9381;54.244;10.074;2024-02-15T10:08:12;100960.31;;;13.77;100.00
18504;BME280;9381;54.244;10.074;2024-02-15T10:13:13;100958.41;;;13.78;100.00
18504;BME280;9381;54.244;10.074;2024-02-15T10:18:13;100959.97;;;13.74;100.00
18504;BME280;9381;54.244;10.074;2024-02-15T10:23:14;100971.47;;;13.87;100.00
18504;BME280;9381;54.244;10.074;2024-02-15T10:28:21;100959.91;;;13.92;100.00
18504;BME280;9381;54.244;10.074;2024-02-15T10:33:27;100960.28;;;14.07;100.00
18504;BME280;9381;54.244;10.074;2024-02-15T10:38:30;100958.44;;;14.19;100.00
18504;BME280;9381;54.244;10.074;2024-02-15T10:43:35;100951.81;;;14.26;100.00
18504;BME280;9381;54.244;10.074;2024-02-15T10:48:37;100944.16;;;14.35;100.00
18504;BME280;9381;54.244;10.074;2024-02-15T10:53:42;100949.47;;;14.41;100.00
18504;BME280;9381;54.244;10.074;2024-02-15T10:59:00;100938.25;;;14.49;100.00
18504;BME280;9381;54.244;10.074;2024-02-15T11:04:07;100938.84;;;14.63;100.00
18504;BME280;9381;54.244;10.074;2024-02-15T11:09:10;100936.59;;;14.48;100.00
18504;BME280;9381;54.244;10.074;2024-02-15T11:14:30;100933.38;;;14.51;100.00
18504;BME280;9381;54.244;10.074;2024-02-15T11:24:49;100937.06;;;14.34;100.00
18504;BME280;9381;54.244;10.074;2024-02-15T11:29:53;100929.94;;;14.44;100.00
18504;BME280;9381;54.244;10.074;2024-02-15T11:35:15;100915.97;;;14.52;100.00
18504;BME280;9381;54.244;10.074;2024-02-15T11:40:59;100915.41;;;14.50;100.00
18504;BME280;9381;54.244;10.074;2024-02-15T11:45:57;100909.25;;;14.55;100.00
18504;BME280;9381;54.244;10.074;2024-02-15T11:50:59;100913.88;;;14.43;100.00
18504;BME280;9381;54.244;10.074;2024-02-15T11:56:02;100908.03;;;14.62;100.00
18504;BME280;9381;54.244;10.074;2024-02-15T12:01:04;100905.19;;;14.68;100.00
18504;BME280;9381;54.244;10.074;2024-02-15T12:06:24;100903.88;;;14.71;100.00
18504;BME280;9381;54.244;10.074;2024-02-15T12:11:42;100894.06;;;14.70;100.00
18504;BME280;9381;54.244;10.074;2024-02-15T12:22:28;100896.44;;;14.78;100.00
18504;BME280;9381;54.244;10.074;2024-02-15T12:27:31;100883.16;;;14.93;100.00
18504;BME280;9381;54.244;10.074;2024-02-15T12:32:32;100890.25;;;14.82;100.00
18504;BME280;9381;54.244;10.074;2024-02-15T12:37:32;100876.28;;;14.79;100.00
18504;BME280;9381;54.244;10.074;2024-02-15T12:42:38;100886.19;;;14.96;100.00
18504;BME280;9381;54.244;10.074;2024-02-15T12:47:38;100886.59;;;14.88;100.00
18504;BME280;9381;54.244;10.074;2024-02-15T12:52:39;100887.41;;;14.89;100.00
18504;BME280;9381;54.244;10.074;2024-02-15T12:57:40;100876.38;;;14.95;100.00
18504;BME280;9381;54.244;10.074;2024-02-15T13:02:50;100873.81;;;15.17;100.00
18504;BME280;9381;54.244;10.074;2024-02-15T13:07:52;100867.53;;;15.16;100.00
18504;BME280;9381;54.244;10.074;2024-02-15T13:12:53;100864.72;;;15.11;100.00
18504;BME280;9381;54.244;10.074;2024-02-15T13:17:54;100864.13;;;15.09;100.00
18504;BME280;9381;54.244;10.074;2024-02-15T13:22:55;100853.47;;;15.08;100.00
18504;BME280;9381;54.244;10.074;2024-02-15T13:28:00;100853.66;;;15.18;100.00
18504;BME280;9381;54.244;10.074;2024-02-15T13:33:00;100841.25;;;15.10;100.00
18504;BME280;9381;54.244;10.074;2024-02-15T13:38:02;100833.03;;;15.22;100.00
18504;BME280;9381;54.244;10.074;2024-02-15T13:43:03;100825.94;;;15.21;100.00
18504;BME280;9381;54.244;10.074;2024-02-15T13:48:05;100831.28;;;15.16;100.00
18504;BME280;9381;54.244;10.074;2024-02-15T13:53:07;100829.28;;;15.11;100.00
18504;BME280;9381;54.244;10.074;2024-02-15T13:58:09;100826.91;;;15.15;100.00
18504;BME280;9381;54.244;10.074;2024-02-15T14:03:12;100829.41;;;15.16;100.00
18504;BME280;9381;54.244;10.074;2024-02-15T14:08:15;100831.47;;;14.98;100.00
18504;BME280;9381;54.244;10.074;2024-02-15T14:13:15;100829.97;;;14.90;100.00
18504;BME280;9381;54.244;10.074;2024-02-15T14:18:16;100828.66;;;14.93;100.00
18504;BME280;9381;54.244;10.074;2024-02-15T14:23:19;100835.84;;;14.99;100.00
18504;BME280;9381;54.244;10.074;2024-02-15T14:28:19;100834.00;;;14.88;100.00
18504;BME280;9381;54.244;10.074;2024-02-15T14:33:20;100827.88;;;14.81;100.00
18504;BME280;9381;54.244;10.074;2024-02-15T14:38:22;100828.84;;;14.75;100.00
18504;BME280;9381;54.244;10.074;2024-02-15T14:43:24;100825.94;;;14.93;100.00
18504;BME280;9381;54.244;10.074;2024-02-15T14:48:26;100825.84;;;14.88;100.00
18504;BME280;9381;54.244;10.074;2024-02-15T14:53:28;100828.75;;;14.98;100.00
18504;BME280;9381;54.244;10.074;2024-02-15T14:58:28;100820.50;;;14.93;100.00
18504;BME280;9381;54.244;10.074;2024-02-15T15:03:31;100822.88;;;14.89;100.00
18504;BME280;9381;54.244;10.074;2024-02-15T15:08:33;100822.22;;;14.99;100.00
18504;BME280;9381;54.244;10.074;2024-02-15T15:13:52;100821.16;;;15.00;100.00
18504;BME280;9381;54.244;10.074;2024-02-15T15:18:52;100815.13;;;14.98;100.00
18504;BME280;9381;54.244;10.074;2024-02-15T15:23:53;100813.97;;;14.94;100.00
18504;BME280;9381;54.244;10.074;2024-02-15T15:28:54;100812.34;;;14.93;100.00
18504;BME280;9381;54.244;10.074;2024-02-15T15:33:55;100801.28;;;14.99;100.00
18504;BME280;9381;54.244;10.074;2024-02-15T15:38:56;100804.25;;;14.98;100.00
18504;BME280;9381;54.244;10.074;2024-02-15T15:43:56;100815.31;;;14.80;100.00
18504;BME280;9381;54.244;10.074;2024-02-15T15:48:56;100809.28;;;14.78;100.00
18504;BME280;9381;54.244;10.074;2024-02-15T15:53:57;100820.75;;;14.80;100.00
18504;BME280;9381;54.244;10.074;2024-02-15T15:58:58;100826.38;;;14.62;100.00
18504;BME280;9381;54.244;10.074;2024-02-15T16:03:58;100824.44;;;14.74;100.00
18504;BME280;9381;54.244;10.074;2024-02-15T16:08:59;100818.91;;;14.69;100.00
18504;BME280;9381;54.244;10.074;2024-02-15T16:13:59;100812.59;;;14.80;100.00
18504;BME280;9381;54.244;10.074;2024-02-15T16:19:00;100818.69;;;14.71;100.00
18504;BME280;9381;54.244;10.074;2024-02-15T16:24:01;100822.94;;;14.67;100.00
18504;BME280;9381;54.244;10.074;2024-02-15T16:29:03;100825.31;;;14.63;100.00
18504;BME280;9381;54.244;10.074;2024-02-15T16:34:04;100819.97;;;14.68;100.00
18504;BME280;9381;54.244;10.074;2024-02-15T16:39:05;100823.28;;;14.70;100.00
18504;BME280;9381;54.244;10.074;2024-02-15T16:44:07;100822.59;;;14.63;100.00
18504;BME280;9381;54.244;10.074;2024-02-15T16:49:09;100828.03;;;14.63;100.00
18504;BME280;9381;54.244;10.074;2024-02-15T16:54:09;100835.41;;;14.51;100.00
18504;BME280;9381;54.244;10.074;2024-02-15T16:59:10;100831.25;;;14.60;100.00
18504;BME280;9381;54.244;10.074;2024-02-15T17:04:10;100819.06;;;14.63;100.00
18504;BME280;9381;54.244;10.074;2024-02-15T17:09:10;100827.06;;;14.69;100.00
18504;BME280;9381;54.244;10.074;2024-02-15T17:14:11;100822.13;;;14.66;100.00
18504;BME280;9381;54.244;10.074;2024-02-15T17:19:11;100832.59;;;14.74;100.00
18504;BME280;9381;54.244;10.074;2024-02-15T17:24:12;100829.69;;;14.64;100.00
18504;BME280;9381;54.244;10.074;2024-02-15T17:29:13;100820.94;;;14.62;100.00
18504;BME280;9381;54.244;10.074;2024-02-15T17:34:13;100830.16;;;14.61;100.00
18504;BME280;9381;54.244;10.074;2024-02-15T17:39:14;100838.47;;;14.66;100.00
18504;BME280;9381;54.244;10.074;2024-02-15T17:44:16;100824.25;;;14.64;100.00
18504;BME280;9381;54.244;10.074;2024-02-15T17:49:18;100824.44;;;14.74;100.00
18504;BME280;9381;54.244;10.074;2024-02-15T17:54:18;100819.50;;;14.71;100.00
18504;BME280;9381;54.244;10.074;2024-02-15T17:59:19;100826.88;;;14.59;100.00
18504;BME280;9381;54.244;10.074;2024-02-15T18:04:20;100828.03;;;14.63;100.00
18504;BME280;9381;54.244;10.074;2024-02-15T18:09:20;100827.81;;;14.53;100.00
18504;BME280;9381;54.244;10.074;2024-02-15T18:14:21;100826.03;;;14.59;100.00
18504;BME280;9381;54.244;10.074;2024-02-15T18:19:22;100821.13;;;14.72;100.00
18504;BME280;9381;54.244;10.074;2024-02-15T18:24:22;100831.59;;;14.52;100.00
18504;BME280;9381;54.244;10.074;2024-02-15T18:29:24;100818.72;;;14.59;100.00
18504;BME280;9381;54.244;10.074;2024-02-15T18:34:24;100824.72;;;14.61;100.00
18504;BME280;9381;54.244;10.074;2024-02-15T18:39:25;100821.66;;;14.46;100.00
18504;BME280;9381;54.244;10.074;2024-02-15T18:44:25;100824.66;;;14.45;100.00
18504;BME280;9381;54.244;10.074;2024-02-15T18:49:26;100829.59;;;14.59;100.00
18504;BME280;9381;54.244;10.074;2024-02-15T18:54:26;100811.03;;;14.56;100.00
18504;BME280;9381;54.244;10.074;2024-02-15T18:59:27;100810.03;;;14.62;100.00
18504;BME280;9381;54.244;10.074;2024-02-15T19:04:29;100801.50;;;14.70;100.00
18504;BME280;9381;54.244;10.074;2024-02-15T19:09:29;100808.88;;;14.70;100.00
18504;BME280;9381;54.244;10.074;2024-02-15T19:14:31;100801.88;;;14.62;100.00
18504;BME280;9381;54.244;10.074;2024-02-15T19:19:31;100804.59;;;14.62;100.00
18504;BME280;9381;54.244;10.074;2024-02-15T19:24:33;100800.00;;;14.63;100.00
18504;BME280;9381;54.244;10.074;2024-02-15T19:29:34;100795.97;;;14.65;100.00
18504;BME280;9381;54.244;10.074;2024-02-15T19:34:35;100793.47;;;14.64;100.00
18504;BME280;9381;54.244;10.074;2024-02-15T19:39:38;100793.56;;;14.68;100.00
18504;BME280;9381;54.244;10.074;2024-02-15T19:44:40;100795.72;;;14.67;100.00
18504;BME280;9381;54.244;10.074;2024-02-15T19:49:41;100794.91;;;14.66;100.00
18504;BME280;9381;54.244;10.074;2024-02-15T19:54:41;100790.66;;;14.59;100.00
18504;BME280;9381;54.244;10.074;2024-02-15T19:59:42;100790.75;;;14.64;100.00
18504;BME280;9381;54.244;10.074;2024-02-15T20:04:43;100794.41;;;14.69;100.00
18504;BME280;9381;54.244;10.074;2024-02-15T20:09:43;100798.22;;;14.68;100.00
18504;BME280;9381;54.244;10.074;2024-02-15T20:14:44;100796.91;;;14.71;100.00
18504;BME280;9381;54.244;10.074;2024-02-15T20:19:44;100802.25;;;14.54;100.00
18504;BME280;9381;54.244;10.074;2024-02-15T20:24:45;100790.63;;;14.70;100.00
18504;BME280;9381;54.244;10.074;2024-02-15T20:29:46;100782.25;;;14.88;100.00
18504;BME280;9381;54.244;10.074;2024-02-15T20:34:46;100778.97;;;14.86;100.00
18504;BME280;9381;54.244;10.074;2024-02-15T20:39:47;100779.31;;;14.89;100.00
18504;BME280;9381;54.244;10.074;2024-02-15T20:44:48;100782.66;;;14.80;100.00
18504;BME280;9381;54.244;10.074;2024-02-15T20:49:48;100790.66;;;14.86;100.00
18504;BME280;9381;54.244;10.074;2024-02-15T20:54:48;100795.19;;;14.81;100.00
18504;BME280;9381;54.244;10.074;2024-02-15T20:59:49;100792.47;;;14.81;100.00
18504;BME280;9381;54.244;10.074;2024-02-15T21:04:52;100798.50;;;14.83;100.00
18504;BME280;9381;54.244;10.074;2024-02-15T21:09:52;100790.19;;;14.89;100.00
18504;BME280;9381;54.244;10.074;2024-02-15T21:14:52;100792.00;;;14.84;100.00
18504;BME280;9381;54.244;10.074;2024-02-15T21:19:53;100789.56;;;14.99;100.00
18504;BME280;9381;54.244;10.074;2024-02-15T21:24:55;100782.94;;;14.95;100.00
18504;BME280;9381;54.244;10.074;2024-02-15T21:29:55;100776.94;;;14.93;100.00
18504;BME280;9381;54.244;10.074;2024-02-15T21:34:55;100770.41;;;14.94;100.00
18504;BME280;9381;54.244;10.074;2024-02-15T21:39:57;100771.22;;;14.94;100.00
18504;BME280;9381;54.244;10.074;2024-02-15T21:44:57;100776.44;;;14.96;100.00
18504;BME280;9381;54.244;10.074;2024-02-15T21:49:57;100769.56;;;14.93;100.00
18504;BME280;9381;54.244;10.074;2024-02-15T21:54:59;100770.22;;;14.84;100.00
18504;BME280;9381;54.244;10.074;2024-02-15T21:59:59;100768.06;;;14.86;100.00
18504;BME280;9381;54.244;10.074;2024-02-15T22:04:59;100760.16;;;14.73;100.00
18504;BME280;9381;54.244;10.074;2024-02-15T22:10:00;100749.97;;;14.80;100.00
18504;BME280;9381;54.244;10.074;2024-02-15T22:15:01;100748.91;;;14.81;100.00
18504;BME280;9381;54.244;10.074;2024-02-15T22:20:06;100737.53;;;14.84;100.00
18504;BME280;9381;54.244;10.074;2024-02-15T22:25:07;100739.66;;;14.82;100.00
18504;BME280;9381;54.244;10.074;2024-02-15T22:30:09;100737.44;;;14.79;100.00
18504;BME280;9381;54.244;10.074;2024-02-15T22:35:10;100731.41;;;14.77;100.00
18504;BME280;9381;54.244;10.074;2024-02-15T22:40:10;100725.69;;;14.78;100.00
18504;BME280;9381;54.244;10.074;2024-02-15T22:45:11;100733.06;;;14.78;100.00
18504;BME280;9381;54.244;10.074;2024-02-15T22:50:13;100724.88;;;14.78;100.00
18504;BME280;9381;54.244;10.074;2024-02-15T22:55:13;100727.22;;;14.58;100.00
18504;BME280;9381;54.244;10.074;2024-02-15T23:00:14;100726.13;;;14.71;100.00
18504;BME280;9381;54.244;10.074;2024-02-15T23:05:14;100729.75;;;14.76;100.00
18504;BME280;9381;54.244;10.074;2024-02-15T23:10:15;100723.28;;;14.66;100.00
18504;BME280;9381;54.244;10.074;2024-02-15T23:15:15;100724.03;;;14.77;100.00
18504;BME280;9381;54.244;10.074;2024-02-15T23:20:16;100708.44;;;14.73;100.00
18504;BME280;9381;54.244;10.074;2024-02-15T23:25:18;100705.00;;;14.77;100.00
18504;BME280;9381;54.244;10.074;2024-02-15T23:30:18;100693.28;;;14.77;100.00
18504;BME280;9381;54.244;10.074;2024-02-15T23:35:20;100690.00;;;14.75;100.00
18504;BME280;9381;54.244;10.074;2024-02-15T23:40:22;100678.59;;;14.78;100.00
18504;BME280;9381;54.244;10.074;2024-02-15T23:45:22;100681.72;;;14.70;100.00
18504;BME280;9381;54.244;10.074;2024-02-15T23:50:23;100682.22;;;14.67;100.00
18504;BME280;9381;54.244;10.074;2024-02-15T23:55:26;100686.59;;;14.68;100.00
